createdAt,value
2024-02-18T00:01:22.387Z,4.50
2024-02-18T00:03:49.643Z,4.23
2024-02-18T00:06:16.692Z,4.18
2024-02-18T00:08:43.557Z,4.26
2024-02-18T00:11:10.449Z,4.05
2024-02-18T00:13:38.046Z,4.06
2024-02-18T00:16:05.530Z,4.02
2024-02-18T00:18:32.294Z,3.72
2024-02-18T00:20:59.081Z,3.56
2024-02-18T00:23:26.287Z,3.58
2024-02-18T00:25:53.583Z,3.88
2024-02-18T00:28:21.474Z,3.82
2024-02-18T00:30:50.548Z,3.55
2024-02-18T00:33:17.905Z,3.50
2024-02-18T00:35:45.686Z,3.67
2024-02-18T00:38:22.018Z,3.58
2024-02-18T00:40:51.112Z,3.79
2024-02-18T00:43:18.152Z,3.63
2024-02-18T00:45:45.010Z,3.64
2024-02-18T00:48:13.372Z,3.56
2024-02-18T00:50:41.627Z,3.81
2024-02-18T00:53:08.524Z,3.94
2024-02-18T00:55:35.995Z,3.57
2024-02-18T00:58:02.986Z,3.65
2024-02-18T01:00:31.114Z,3.62
2024-02-18T01:02:57.925Z,3.82
2024-02-18T01:05:26.743Z,3.19
2024-02-18T01:07:53.762Z,3.30
2024-02-18T01:10:20.912Z,3.80
2024-02-18T01:12:49.248Z,2.99
2024-02-18T01:15:16.510Z,3.69
2024-02-18T01:17:44.155Z,3.86
2024-02-18T01:20:12.818Z,3.55
2024-02-18T01:22:39.611Z,3.61
2024-02-18T01:25:06.770Z,2.93
2024-02-18T01:27:33.629Z,2.89
2024-02-18T01:30:04.702Z,3.43
2024-02-18T01:32:31.857Z,3.08
2024-02-18T01:34:58.875Z,3.36
2024-02-18T01:37:26.575Z,3.36
2024-02-18T01:39:54.356Z,3.05
2024-02-18T01:42:21.464Z,3.34
2024-02-18T01:44:49.299Z,3.29
2024-02-18T01:47:16.239Z,3.23
2024-02-18T01:49:43.533Z,3.08
2024-02-18T01:52:13.151Z,2.95
2024-02-18T01:54:40.718Z,3.17
2024-02-18T01:57:09.592Z,3.17
2024-02-18T01:59:37.852Z,3.14
2024-02-18T02:02:04.973Z,2.88
2024-02-18T02:04:31.812Z,2.94
2024-02-18T02:07:01.641Z,3.04
2024-02-18T02:09:30.994Z,2.79
2024-02-18T02:11:58.152Z,2.94
2024-02-18T02:14:25.832Z,2.93
2024-02-18T02:16:53.074Z,3.06
2024-02-18T02:19:23.877Z,2.99
2024-02-18T02:21:51.832Z,2.88
2024-02-18T02:24:19.047Z,3.08
2024-02-18T02:26:52.208Z,3.10
2024-02-18T02:29:19.370Z,3.17
2024-02-18T02:31:47.606Z,2.95
2024-02-18T02:34:17.694Z,3.17
2024-02-18T02:36:45.321Z,3.01
2024-02-18T02:39:12.821Z,3.38
2024-02-18T02:41:39.934Z,3.51
2024-02-18T02:44:06.707Z,3.38
2024-02-18T02:46:34.656Z,3.39
2024-02-18T02:49:02.726Z,3.02
2024-02-18T02:51:29.480Z,2.60
2024-02-18T02:53:56.251Z,2.95
2024-02-18T02:56:24.569Z,2.76
2024-02-18T02:58:51.157Z,3.07
2024-02-18T03:01:20.156Z,2.98
2024-02-18T03:03:49.012Z,2.16
2024-02-18T03:06:15.921Z,2.79
2024-02-18T03:08:44.144Z,2.63
2024-02-18T03:11:11.121Z,2.85
2024-02-18T03:13:37.861Z,2.57
2024-02-18T03:16:05.577Z,2.54
2024-02-18T03:18:36.700Z,2.17
2024-02-18T03:21:06.944Z,2.25
2024-02-18T03:23:35.237Z,2.40
2024-02-18T03:26:03.426Z,2.67
2024-02-18T03:28:31.222Z,2.65
2024-02-18T03:30:58.906Z,2.54
2024-02-18T03:33:26.210Z,2.53
2024-02-18T03:35:53.906Z,2.57
2024-02-18T03:38:23.852Z,1.99
2024-02-18T03:40:52.244Z,2.18
2024-02-18T03:43:18.921Z,2.34
2024-02-18T03:45:47.154Z,2.63
2024-02-18T03:48:15.446Z,2.74
2024-02-18T03:50:42.938Z,2.74
2024-02-18T03:53:09.546Z,2.42
2024-02-18T03:55:37.050Z,2.39
2024-02-18T03:58:04.015Z,2.33
2024-02-18T04:00:30.729Z,2.40
2024-02-18T04:02:58.459Z,2.26
2024-02-18T04:05:25.390Z,2.10
2024-02-18T04:07:52.273Z,2.26
2024-02-18T04:10:22.421Z,2.17
2024-02-18T04:12:49.381Z,1.96
2024-02-18T04:15:16.925Z,2.23
2024-02-18T04:17:44.065Z,2.18
2024-02-18T04:20:12.325Z,2.11
2024-02-18T04:22:39.797Z,2.03
2024-02-18T04:25:07.224Z,2.08
2024-02-18T04:27:33.954Z,1.98
2024-02-18T04:30:01.170Z,1.98
2024-02-18T04:32:28.005Z,2.03
2024-02-18T04:34:55.359Z,2.11
2024-02-18T04:37:25.576Z,1.80
2024-02-18T04:39:53.523Z,1.61
2024-02-18T04:42:20.561Z,1.22
2024-02-18T04:44:50.150Z,1.72
2024-02-18T04:47:17.644Z,1.70
2024-02-18T04:49:44.772Z,1.58
2024-02-18T04:52:12.840Z,1.73
2024-02-18T04:54:40.420Z,1.82
2024-02-18T04:57:08.004Z,1.74
2024-02-18T04:59:35.653Z,1.92
2024-02-18T05:02:04.445Z,1.93
2024-02-18T05:04:32.922Z,1.93
2024-02-18T05:07:00.981Z,1.65
2024-02-18T05:09:28.375Z,1.74
2024-02-18T05:11:56.524Z,1.58
2024-02-18T05:14:24.219Z,1.49
2024-02-18T05:16:51.060Z,1.71
2024-02-18T05:19:19.738Z,1.75
2024-02-18T05:21:47.533Z,1.73
2024-02-18T05:24:17.974Z,1.85
2024-02-18T05:26:44.697Z,1.71
2024-02-18T05:29:11.821Z,1.49
2024-02-18T05:31:39.622Z,1.33
2024-02-18T05:34:07.659Z,1.38
2024-02-18T05:36:34.802Z,1.91
2024-02-18T05:39:06.174Z,1.69
2024-02-18T05:41:32.893Z,1.69
2024-02-18T05:44:00.048Z,1.41
2024-02-18T05:46:27.325Z,1.71
2024-02-18T05:48:54.300Z,2.03
2024-02-18T05:51:21.337Z,1.81
2024-02-18T05:53:48.896Z,1.73
2024-02-18T05:56:17.664Z,1.93
2024-02-18T05:58:44.975Z,1.60
2024-02-18T06:01:11.791Z,1.31
2024-02-18T06:03:39.571Z,1.58
2024-02-18T06:06:08.498Z,1.52
2024-02-18T06:08:35.422Z,1.17
2024-02-18T06:11:09.942Z,1.41
2024-02-18T06:13:36.762Z,1.35
2024-02-18T06:16:05.068Z,1.21
2024-02-18T06:18:31.980Z,1.23
2024-02-18T06:21:00.108Z,1.22
2024-02-18T06:23:27.462Z,1.65
2024-02-18T06:25:55.115Z,1.76
2024-02-18T06:28:22.425Z,1.85
2024-02-18T06:30:49.351Z,1.77
2024-02-18T06:33:16.607Z,1.98
2024-02-18T06:35:44.753Z,2.11
2024-02-18T06:38:11.657Z,2.00
2024-02-18T06:40:38.563Z,1.95
2024-02-18T06:43:07.946Z,2.04
2024-02-18T06:45:34.846Z,1.71
2024-02-18T06:48:01.776Z,1.81
2024-02-18T06:50:29.917Z,2.18
2024-02-18T06:52:56.726Z,2.68
2024-02-18T06:55:23.805Z,2.67
2024-02-18T06:57:50.695Z,2.93
2024-02-18T07:00:20.245Z,2.46
2024-02-18T07:02:48.678Z,2.94
2024-02-18T07:05:15.455Z,3.02
2024-02-18T07:07:42.518Z,3.33
2024-02-18T07:10:09.339Z,3.76
2024-02-18T07:12:36.332Z,4.07
2024-02-18T07:15:04.303Z,4.64
2024-02-18T07:17:31.077Z,5.12
2024-02-18T07:19:58.175Z,5.21
2024-02-18T07:22:26.036Z,5.47
2024-02-18T07:24:52.734Z,6.25
2024-02-18T07:27:22.581Z,6.57
2024-02-18T07:29:50.634Z,7.27
2024-02-18T07:32:17.377Z,7.57
2024-02-18T07:34:45.289Z,8.36
2024-02-18T07:37:12.446Z,8.56
2024-02-18T07:39:39.394Z,9.19
2024-02-18T07:42:07.831Z,10.00
2024-02-18T07:44:38.863Z,10.44
2024-02-18T07:47:05.609Z,10.65
2024-02-18T07:49:33.684Z,11.07
2024-02-18T07:52:01.138Z,12.17
2024-02-18T07:54:28.367Z,12.40
2024-02-18T07:56:58.672Z,12.88
2024-02-18T07:59:27.635Z,13.35
2024-02-18T08:01:55.670Z,14.07
2024-02-18T08:04:24.585Z,14.80
2024-02-18T08:06:52.556Z,14.99
2024-02-18T08:09:19.930Z,14.90
2024-02-18T08:11:46.732Z,15.75
2024-02-18T08:14:13.900Z,16.19
2024-02-18T08:16:41.111Z,16.18
2024-02-18T08:19:08.181Z,16.44
2024-02-18T08:21:35.923Z,17.11
2024-02-18T08:24:02.573Z,17.82
2024-02-18T08:26:31.008Z,18.01
2024-02-18T08:28:58.149Z,18.14
2024-02-18T08:31:25.409Z,19.56
2024-02-18T08:33:52.526Z,20.00
2024-02-18T08:36:19.447Z,20.35
2024-02-18T08:41:49.482Z,19.19
2024-02-18T08:44:16.325Z,18.67
2024-02-18T08:46:43.452Z,17.60
2024-02-18T08:49:10.450Z,16.60
2024-02-18T08:51:40.300Z,16.67
2024-02-18T08:54:09.306Z,17.64
2024-02-18T08:56:36.974Z,18.44
2024-02-18T08:59:03.827Z,18.18
2024-02-18T09:01:30.814Z,18.03
2024-02-18T09:03:59.053Z,18.11
2024-02-18T09:06:26.037Z,17.96
2024-02-18T09:08:52.815Z,17.91
2024-02-18T09:11:20.936Z,17.44
2024-02-18T09:13:47.671Z,18.87
2024-02-18T09:16:14.537Z,19.60
2024-02-18T09:18:41.404Z,19.44
2024-02-18T09:21:09.991Z,19.35
2024-02-18T09:23:39.339Z,19.89
2024-02-18T09:26:09.220Z,19.83
2024-02-18T09:28:35.893Z,19.34
2024-02-18T09:31:04.657Z,20.47
2024-02-18T09:33:31.774Z,20.96
2024-02-18T09:36:00.337Z,20.97
2024-02-18T09:38:27.470Z,19.49
2024-02-18T09:40:56.158Z,20.15
2024-02-18T09:43:26.204Z,20.89
2024-02-18T09:45:55.853Z,21.89
2024-02-18T09:48:23.352Z,20.76
2024-02-18T09:50:53.418Z,20.34
2024-02-18T09:53:20.262Z,21.42
2024-02-18T09:55:49.703Z,21.21
2024-02-18T09:58:16.640Z,21.89
2024-02-18T10:00:45.811Z,22.26
2024-02-18T10:03:13.215Z,22.42
2024-02-18T10:05:40.831Z,22.64
2024-02-18T10:08:08.098Z,22.58
2024-02-18T10:10:35.842Z,22.58
2024-02-18T10:13:05.949Z,22.74
2024-02-18T10:15:35.323Z,22.13
2024-02-18T10:18:11.494Z,21.86
2024-02-18T10:20:42.674Z,22.44
2024-02-18T10:23:14.184Z,22.74
2024-02-18T10:25:42.634Z,22.36
2024-02-18T10:28:10.241Z,22.67
2024-02-18T10:30:39.142Z,22.21
2024-02-18T10:33:06.044Z,22.25
2024-02-18T10:35:32.940Z,22.93
2024-02-18T10:38:01.211Z,23.47
2024-02-18T10:40:40.918Z,23.66
2024-02-18T10:43:13.154Z,22.65
2024-02-18T10:45:43.534Z,22.52
2024-02-18T10:48:12.804Z,21.49
2024-02-18T10:50:47.164Z,19.27
2024-02-18T10:53:26.726Z,21.22
2024-02-18T10:56:04.489Z,21.59
2024-02-18T10:59:07.097Z,21.53
2024-02-18T11:01:51.111Z,21.61
2024-02-18T11:04:21.509Z,19.99
2024-02-18T11:06:50.354Z,19.68
2024-02-18T11:09:18.986Z,20.69
2024-02-18T11:11:48.524Z,21.51
2024-02-18T11:14:17.224Z,21.60
2024-02-18T11:16:46.837Z,21.59
2024-02-18T11:19:14.722Z,21.64
2024-02-18T11:21:43.845Z,22.23
2024-02-18T11:24:11.002Z,22.42
2024-02-18T11:26:38.062Z,22.47
2024-02-18T11:29:05.630Z,22.51
2024-02-18T11:31:33.676Z,22.52
2024-02-18T11:34:02.270Z,22.40
2024-02-18T11:36:29.738Z,21.78
2024-02-18T11:38:58.877Z,21.60
2024-02-18T11:41:34.706Z,21.48
2024-02-18T11:44:08.805Z,21.55
2024-02-18T11:46:45.201Z,21.10
2024-02-18T11:49:14.701Z,20.42
2024-02-18T11:51:43.018Z,20.48
2024-02-18T11:54:10.764Z,20.54
2024-02-18T11:56:38.224Z,20.02
2024-02-18T11:59:06.506Z,19.42
2024-02-18T12:01:37.385Z,19.89
2024-02-18T12:04:05.202Z,19.51
2024-02-18T12:06:32.402Z,19.68
2024-02-18T12:09:01.737Z,19.48
2024-02-18T12:11:29.713Z,19.73
2024-02-18T12:13:56.541Z,20.17
2024-02-18T12:16:24.381Z,19.92
2024-02-18T12:18:51.637Z,19.75
2024-02-18T12:21:18.830Z,20.07
2024-02-18T12:23:47.914Z,19.48
2024-02-18T12:26:18.965Z,19.67
2024-02-18T12:28:47.508Z,19.57
2024-02-18T12:31:14.319Z,19.60
2024-02-18T12:33:42.416Z,19.85
2024-02-18T12:36:09.410Z,20.06
2024-02-18T12:38:38.576Z,18.19
2024-02-18T12:41:09.026Z,18.85
2024-02-18T12:46:09.674Z,19.72
2024-02-18T12:48:37.956Z,20.64
2024-02-18T12:51:14.024Z,20.98
2024-02-18T12:53:42.517Z,20.64
2024-02-18T12:56:12.398Z,20.49
2024-02-18T12:58:40.161Z,19.87
2024-02-18T13:01:08.405Z,20.38
2024-02-18T13:03:37.543Z,20.41
2024-02-18T13:06:05.064Z,20.53
2024-02-18T13:08:35.692Z,20.88
2024-02-18T13:11:03.243Z,20.68
2024-02-18T13:13:30.184Z,20.46
2024-02-18T13:15:57.248Z,18.15
2024-02-18T13:18:25.657Z,17.23
2024-02-18T13:20:52.560Z,18.69
2024-02-18T13:23:19.305Z,19.00
2024-02-18T13:25:46.152Z,18.91
2024-02-18T13:28:14.466Z,20.01
2024-02-18T13:30:42.353Z,19.70
2024-02-18T13:33:09.907Z,20.02
2024-02-18T13:35:36.809Z,19.57
2024-02-18T13:38:04.613Z,19.14
2024-02-18T13:40:33.692Z,19.76
2024-02-18T13:43:02.232Z,19.23
2024-02-18T13:45:29.497Z,18.78
2024-02-18T13:47:58.913Z,17.14
2024-02-18T13:50:26.987Z,17.95
2024-02-18T13:52:53.804Z,17.81
2024-02-18T13:55:20.743Z,16.82
2024-02-18T13:57:47.932Z,16.17
2024-02-18T14:00:16.170Z,16.43
2024-02-18T14:02:43.551Z,16.59
2024-02-18T14:05:20.038Z,16.88
2024-02-18T14:07:47.759Z,17.36
2024-02-18T14:10:18.171Z,17.20
2024-02-18T14:12:45.124Z,17.39
2024-02-18T14:15:13.635Z,17.36
2024-02-18T14:17:43.919Z,17.41
2024-02-18T14:20:13.779Z,17.70
2024-02-18T14:22:41.327Z,17.40
2024-02-18T14:25:10.263Z,17.38
2024-02-18T14:27:38.690Z,17.33
2024-02-18T14:30:06.004Z,16.50
2024-02-18T14:32:32.910Z,16.23
2024-02-18T14:35:02.827Z,16.27
2024-02-18T14:37:29.716Z,16.73
2024-02-18T14:39:56.495Z,16.60
2024-02-18T14:42:23.818Z,16.08
2024-02-18T14:44:54.882Z,15.86
2024-02-18T14:47:23.511Z,16.27
2024-02-18T14:49:50.434Z,15.77
2024-02-18T14:52:17.188Z,15.77
2024-02-18T14:54:45.498Z,15.72
2024-02-18T14:57:12.170Z,15.13
2024-02-18T14:59:40.115Z,15.39
2024-02-18T15:02:07.826Z,15.26
2024-02-18T15:04:36.964Z,14.87
2024-02-18T15:07:04.849Z,14.69
2024-02-18T15:09:33.624Z,14.01
2024-02-18T15:12:00.688Z,14.64
2024-02-18T15:14:28.129Z,14.70
2024-02-18T15:16:55.735Z,15.00
2024-02-18T15:19:23.634Z,15.18
2024-02-18T15:21:52.865Z,14.84
2024-02-18T15:24:19.624Z,14.72
2024-02-18T15:26:47.156Z,14.38
2024-02-18T15:29:16.891Z,14.60
2024-02-18T15:31:43.741Z,14.78
2024-02-18T15:34:14.453Z,13.91
2024-02-18T15:36:43.422Z,14.43
2024-02-18T15:39:12.428Z,14.55
2024-02-18T15:41:39.701Z,14.50
2024-02-18T15:44:06.741Z,14.25
2024-02-18T15:46:33.493Z,14.25
2024-02-18T15:49:00.697Z,14.06
2024-02-18T15:51:31.058Z,13.62
2024-02-18T15:53:59.130Z,13.94
2024-02-18T15:56:27.599Z,13.77
2024-02-18T15:58:56.566Z,13.65
2024-02-18T16:01:24.101Z,13.81
2024-02-18T16:03:51.666Z,13.73
2024-02-18T16:06:19.509Z,13.62
2024-02-18T16:08:46.340Z,13.70
2024-02-18T16:11:13.275Z,13.56
2024-02-18T16:13:44.366Z,13.56
2024-02-18T16:16:13.575Z,13.45
2024-02-18T16:18:42.569Z,13.13
2024-02-18T16:21:10.488Z,13.34
2024-02-18T16:23:37.242Z,13.29
2024-02-18T16:26:03.882Z,13.13
2024-02-18T16:28:31.120Z,13.07
2024-02-18T16:30:57.968Z,12.94
2024-02-18T16:33:24.786Z,13.04
2024-02-18T16:35:51.622Z,12.95
2024-02-18T16:38:20.916Z,12.73
2024-02-18T16:40:50.270Z,12.13
2024-02-18T16:43:17.389Z,12.69
2024-02-18T16:45:44.090Z,12.52
2024-02-18T16:48:10.903Z,12.55
2024-02-18T16:50:38.160Z,12.43
2024-02-18T16:53:05.161Z,12.22
2024-02-18T16:55:32.076Z,12.38
2024-02-18T16:57:59.781Z,12.21
2024-02-18T17:00:28.224Z,12.07
2024-02-18T17:02:55.528Z,12.06
2024-02-18T17:05:24.728Z,11.71
2024-02-18T17:07:51.840Z,11.86
2024-02-18T17:10:18.996Z,11.53
2024-02-18T17:12:48.927Z,11.83
2024-02-18T17:15:17.488Z,11.77
2024-02-18T17:17:44.218Z,11.88
2024-02-18T17:20:13.126Z,11.66
2024-02-18T17:22:40.277Z,11.64
2024-02-18T17:25:08.971Z,11.67
2024-02-18T17:27:35.939Z,11.63
2024-02-18T17:30:02.716Z,11.24
2024-02-18T17:32:32.441Z,11.56
2024-02-18T17:35:05.045Z,11.13
2024-02-18T17:37:34.282Z,11.48
2024-02-18T17:40:01.310Z,11.15
2024-02-18T17:42:27.988Z,10.80
2024-02-18T17:44:56.843Z,11.34
2024-02-18T17:47:24.622Z,11.21
2024-02-18T17:49:51.631Z,11.08
2024-02-18T17:52:18.938Z,10.95
2024-02-18T17:54:46.434Z,10.79
2024-02-18T17:57:14.152Z,10.70
2024-02-18T17:59:41.966Z,10.52
2024-02-18T18:02:13.393Z,10.62
2024-02-18T18:04:40.375Z,10.28
2024-02-18T18:07:07.791Z,10.23
2024-02-18T18:09:34.883Z,10.25
2024-02-18T18:12:03.932Z,9.96
2024-02-18T18:14:30.634Z,10.05
2024-02-18T18:16:58.341Z,10.06
2024-02-18T18:19:28.816Z,10.04
2024-02-18T18:21:56.087Z,9.96
2024-02-18T18:24:23.072Z,10.12
2024-02-18T18:26:51.390Z,10.33
2024-02-18T18:29:18.671Z,10.15
2024-02-18T18:31:48.797Z,10.22
2024-02-18T18:34:16.749Z,10.23
2024-02-18T18:36:43.744Z,9.56
2024-02-18T18:39:11.877Z,9.59
2024-02-18T18:45:15.773Z,10.24
2024-02-18T18:48:07.424Z,9.42
2024-02-18T18:50:34.134Z,9.78
2024-02-18T18:53:01.016Z,10.13
2024-02-18T18:55:27.756Z,9.52
2024-02-18T18:57:56.653Z,9.88
2024-02-18T19:00:24.755Z,9.52
2024-02-18T19:02:54.390Z,9.87
2024-02-18T19:05:22.869Z,9.54
2024-02-18T19:07:51.781Z,9.70
2024-02-18T19:10:19.433Z,9.74
2024-02-18T19:12:46.178Z,9.72
2024-02-18T19:15:14.638Z,9.84
2024-02-18T19:17:41.386Z,9.86
2024-02-18T19:20:08.960Z,9.64
2024-02-18T19:22:39.009Z,9.29
2024-02-18T19:25:06.634Z,9.86
2024-02-18T19:27:34.623Z,9.70
2024-02-18T19:30:04.435Z,9.51
2024-02-18T19:32:33.215Z,9.65
2024-02-18T19:35:00.221Z,9.60
2024-02-18T19:37:28.992Z,9.72
2024-02-18T19:39:56.788Z,9.10
2024-02-18T19:42:23.739Z,9.31
2024-02-18T19:44:51.970Z,9.65
2024-02-18T19:47:18.984Z,9.86
2024-02-18T19:49:46.142Z,9.56
2024-02-18T19:52:13.640Z,9.57
2024-02-18T19:54:43.265Z,9.45
2024-02-18T19:57:10.025Z,9.37
2024-02-18T19:59:46.605Z,9.28
2024-02-18T20:02:15.905Z,9.45
2024-02-18T20:04:44.377Z,9.26
2024-02-18T20:07:12.287Z,9.57
2024-02-18T20:09:40.113Z,9.58
2024-02-18T20:12:07.993Z,9.56
2024-02-18T20:14:34.784Z,9.60
2024-02-18T20:17:01.957Z,9.31
2024-02-18T20:19:28.761Z,9.49
2024-02-18T20:21:57.073Z,9.31
2024-02-18T20:24:25.365Z,9.36
2024-02-18T20:26:57.532Z,9.06
2024-02-18T20:29:25.377Z,9.28
2024-02-18T20:31:52.570Z,9.47
2024-02-18T20:34:19.649Z,9.33
2024-02-18T20:36:47.512Z,9.52
2024-02-18T20:39:14.417Z,9.16
2024-02-18T20:41:41.378Z,9.59
2024-02-18T20:44:08.088Z,9.45
2024-02-18T20:46:35.980Z,9.50
2024-02-18T20:49:03.726Z,9.30
2024-02-18T20:51:31.104Z,9.16
2024-02-18T20:53:58.969Z,9.07
2024-02-18T20:56:25.634Z,9.18
2024-02-18T20:58:52.815Z,9.06
2024-02-18T21:01:19.647Z,8.56
2024-02-18T21:03:47.216Z,8.51
2024-02-18T21:06:16.654Z,8.99
2024-02-18T21:08:43.374Z,8.96
2024-02-18T21:11:11.766Z,8.61
2024-02-18T21:13:39.333Z,9.05
2024-02-18T21:16:06.630Z,8.44
2024-02-18T21:18:33.578Z,8.55
2024-02-18T21:21:00.628Z,8.84
2024-02-18T21:23:28.225Z,8.84
2024-02-18T21:25:57.991Z,8.70
2024-02-18T21:28:25.747Z,8.85
2024-02-18T21:30:56.383Z,8.68
2024-02-18T21:33:28.102Z,8.89
2024-02-18T21:35:54.915Z,8.43
2024-02-18T21:38:22.765Z,8.68
2024-02-18T21:40:49.653Z,9.24
2024-02-18T21:43:17.863Z,8.90
2024-02-18T21:45:46.360Z,9.14
2024-02-18T21:48:14.074Z,8.99
2024-02-18T21:50:41.793Z,9.08
2024-02-18T21:53:08.596Z,8.74
2024-02-18T21:55:37.281Z,8.63
2024-02-18T21:58:04.558Z,8.61
2024-02-18T22:00:35.721Z,8.99
2024-02-18T22:03:04.931Z,8.84
2024-02-18T22:05:31.953Z,8.87
2024-02-18T22:08:01.044Z,8.40
2024-02-18T22:10:28.119Z,8.84
2024-02-18T22:12:55.255Z,8.73
2024-02-18T22:15:22.274Z,8.52
2024-02-18T22:17:52.982Z,8.24
2024-02-18T22:20:19.971Z,8.82
2024-02-18T22:22:46.711Z,8.01
2024-02-18T22:25:13.914Z,8.85
2024-02-18T22:27:41.004Z,8.76
2024-02-18T22:30:20.804Z,8.88
2024-02-18T22:32:47.653Z,8.75
2024-02-18T22:35:15.578Z,8.76
2024-02-18T22:37:42.846Z,8.20
2024-02-18T22:40:10.530Z,8.75
2024-02-18T22:42:39.256Z,8.59
2024-02-18T22:45:07.913Z,8.29
2024-02-18T22:47:35.005Z,8.45
2024-02-18T22:50:03.621Z,8.31
2024-02-18T22:52:32.119Z,7.72
2024-02-18T22:54:58.796Z,7.84
2024-02-18T22:57:25.464Z,8.59
2024-02-18T22:59:52.160Z,8.40
2024-02-18T23:02:22.129Z,8.16
2024-02-18T23:04:48.803Z,8.05
2024-02-18T23:07:15.702Z,7.98
2024-02-18T23:09:49.588Z,7.96
2024-02-18T23:12:16.393Z,7.93
2024-02-18T23:14:44.124Z,7.89
2024-02-18T23:17:10.809Z,7.85
2024-02-18T23:19:42.837Z,7.49
2024-02-18T23:22:11.406Z,7.58
2024-02-18T23:24:46.414Z,7.29
2024-02-18T23:27:14.795Z,7.60
2024-02-18T23:29:43.345Z,6.88
2024-02-18T23:32:11.529Z,6.99
2024-02-18T23:34:38.364Z,7.19
2024-02-18T23:37:08.035Z,7.43
2024-02-18T23:39:34.855Z,7.33
2024-02-18T23:42:03.328Z,7.22
2024-02-18T23:44:30.225Z,7.12
2024-02-18T23:46:57.020Z,7.13
2024-02-18T23:49:25.897Z,7.07
2024-02-18T23:51:53.451Z,6.51
2024-02-18T23:54:20.627Z,6.85
2024-02-18T23:56:54.217Z,7.26
2024-02-18T23:59:21.466Z,7.14
